createdAt,value
2019-02-17T00:00:56.623Z,408.50
2019-02-17T00:01:56.596Z,408.07
2019-02-17T00:02:56.598Z,408.47
2019-02-17T00:03:56.575Z,408.22
2019-02-17T00:04:56.590Z,409.34
2019-02-17T00:05:56.559Z,409.26
2019-02-17T00:06:56.542Z,409.21
2019-02-17T00:07:56.538Z,408.89
2019-02-17T00:08:56.536Z,409.26
2019-02-17T00:09:56.536Z,408.55
2019-02-17T00:10:56.505Z,408.65
2019-02-17T00:11:56.492Z,409.27
2019-02-17T00:12:56.467Z,409.74
2019-02-17T00:13:56.469Z,409.38
2019-02-17T00:14:56.469Z,409.03
2019-02-17T00:15:56.448Z,409.55
2019-02-17T00:16:56.437Z,408.97
2019-02-17T00:17:56.418Z,409.61
2019-02-17T00:18:56.402Z,409.32
2019-02-17T00:19:56.412Z,410.42
2019-02-17T00:20:56.395Z,409.33
2019-02-17T00:21:56.380Z,409.28
2019-02-17T00:22:56.362Z,408.91
2019-02-17T00:23:56.357Z,409.75
2019-02-17T00:24:56.356Z,409.66
2019-02-17T00:25:56.339Z,409.11
2019-02-17T00:26:56.336Z,409.38
2019-02-17T00:27:56.306Z,409.11
2019-02-17T00:28:59.475Z,409.12
2019-02-17T00:29:56.299Z,408.64
2019-02-17T00:30:56.286Z,408.15
2019-02-17T00:31:56.264Z,408.85
2019-02-17T00:32:56.250Z,408.21
2019-02-17T00:33:56.239Z,408.23
2019-02-17T00:34:56.238Z,408.08
2019-02-17T00:35:56.238Z,408.27
2019-02-17T00:36:56.203Z,408.80
2019-02-17T00:37:56.200Z,408.62
2019-02-17T00:38:56.195Z,408.90
2019-02-17T00:39:56.168Z,408.60
2019-02-17T00:40:56.177Z,408.99
2019-02-17T00:41:56.162Z,409.35
2019-02-17T00:42:56.156Z,409.20
2019-02-17T00:43:56.146Z,408.50
2019-02-17T00:44:56.113Z,408.92
2019-02-17T00:45:56.123Z,408.88
2019-02-17T00:46:56.108Z,408.62
2019-02-17T00:47:56.095Z,408.68
2019-02-17T00:48:56.079Z,408.22
2019-02-17T00:49:56.081Z,408.55
2019-02-17T00:50:56.085Z,408.00
2019-02-17T00:51:56.033Z,407.72
2019-02-17T00:52:56.037Z,407.77
2019-02-17T00:53:56.031Z,408.05
2019-02-17T00:54:56.012Z,408.82
2019-02-17T00:55:56.023Z,408.80
2019-02-17T00:56:55.994Z,408.89
2019-02-17T00:57:55.977Z,408.68
2019-02-17T00:58:55.964Z,408.59
2019-02-17T00:59:55.953Z,408.91
2019-02-17T01:00:56.145Z,408.87
2019-02-17T01:01:55.971Z,408.88
2019-02-17T01:02:55.925Z,408.23
2019-02-17T01:03:55.920Z,408.45
2019-02-17T01:04:55.892Z,407.97
2019-02-17T01:05:55.896Z,407.82
2019-02-17T01:06:55.904Z,407.75
2019-02-17T01:07:55.872Z,407.35
2019-02-17T01:08:55.855Z,408.47
2019-02-17T01:09:55.852Z,407.56
2019-02-17T01:10:55.835Z,407.82
2019-02-17T01:11:55.856Z,408.39
2019-02-17T01:12:55.808Z,408.48
2019-02-17T01:13:55.803Z,407.67
2019-02-17T01:14:55.799Z,408.60
2019-02-17T01:15:55.787Z,408.05
2019-02-17T01:16:55.768Z,407.42
2019-02-17T01:17:55.776Z,407.31
2019-02-17T01:18:55.744Z,407.78
2019-02-17T01:19:55.732Z,408.25
2019-02-17T01:20:55.731Z,408.15
2019-02-17T01:21:55.715Z,408.00
2019-02-17T01:22:55.739Z,408.39
2019-02-17T01:23:55.695Z,407.59
2019-02-17T01:24:55.688Z,407.91
2019-02-17T01:25:55.681Z,407.72
2019-02-17T01:26:55.668Z,407.79
2019-02-17T01:27:55.670Z,407.50
2019-02-17T01:28:55.654Z,408.32
2019-02-17T01:29:55.637Z,407.85
2019-02-17T01:30:55.614Z,407.68
2019-02-17T01:31:55.612Z,407.40
2019-02-17T01:32:55.604Z,407.88
2019-02-17T01:33:55.588Z,407.54
2019-02-17T01:34:55.566Z,408.21
2019-02-17T01:35:55.554Z,407.72
2019-02-17T01:36:55.540Z,407.45
2019-02-17T01:37:55.548Z,407.89
2019-02-17T01:38:55.518Z,408.10
2019-02-17T01:39:55.515Z,408.08
2019-02-17T01:40:55.497Z,407.61
2019-02-17T01:41:55.495Z,407.90
2019-02-17T01:42:55.478Z,408.17
2019-02-17T01:43:55.492Z,408.30
2019-02-17T01:44:55.463Z,408.80
2019-02-17T01:45:55.442Z,408.35
2019-02-17T01:46:55.445Z,408.55
2019-02-17T01:47:55.425Z,408.95
2019-02-17T01:48:55.418Z,408.54
2019-02-17T01:49:55.470Z,408.00
2019-02-17T01:50:55.391Z,407.75
2019-02-17T01:51:55.377Z,408.29
2019-02-17T01:52:55.377Z,408.11
2019-02-17T01:53:55.362Z,408.13
2019-02-17T01:54:55.337Z,408.29
2019-02-17T01:55:55.335Z,408.14
2019-02-17T01:56:55.324Z,408.16
2019-02-17T01:57:55.310Z,408.48
2019-02-17T01:58:55.313Z,407.86
2019-02-17T01:59:55.285Z,408.25
2019-02-17T02:00:55.274Z,408.46
2019-02-17T02:01:55.273Z,408.60
2019-02-17T02:02:55.254Z,408.21
2019-02-17T02:03:55.278Z,408.19
2019-02-17T02:04:55.228Z,408.76
2019-02-17T02:05:55.216Z,409.02
2019-02-17T02:06:55.208Z,408.97
2019-02-17T02:07:55.192Z,408.46
2019-02-17T02:08:55.214Z,409.08
2019-02-17T02:09:55.185Z,409.10
2019-02-17T02:10:55.163Z,409.42
2019-02-17T02:11:55.154Z,408.88
2019-02-17T02:12:55.147Z,409.02
2019-02-17T02:13:55.133Z,409.17
2019-02-17T02:14:55.134Z,409.13
2019-02-17T02:15:55.110Z,409.47
2019-02-17T02:16:55.104Z,408.81
2019-02-17T02:17:55.087Z,409.17
2019-02-17T02:18:55.149Z,408.81
2019-02-17T02:19:55.077Z,409.20
2019-02-17T02:20:55.049Z,409.13
2019-02-17T02:21:55.040Z,408.85
2019-02-17T02:22:55.034Z,408.95
2019-02-17T02:23:55.013Z,409.46
2019-02-17T02:24:55.032Z,408.57
2019-02-17T02:25:54.997Z,409.20
2019-02-17T02:26:54.991Z,409.67
2019-02-17T02:27:54.977Z,408.68
2019-02-17T02:28:54.963Z,408.50
2019-02-17T02:29:54.966Z,409.11
2019-02-17T02:30:54.943Z,408.58
2019-02-17T02:31:54.940Z,408.78
2019-02-17T02:32:54.910Z,409.09
2019-02-17T02:33:54.915Z,409.15
2019-02-17T02:34:54.921Z,408.95
2019-02-17T02:35:54.884Z,408.61
2019-02-17T02:36:54.866Z,408.46
2019-02-17T02:37:54.858Z,409.48
2019-02-17T02:38:54.851Z,409.41
2019-02-17T02:39:54.856Z,408.37
2019-02-17T02:40:54.850Z,409.32
2019-02-17T02:41:54.822Z,409.41
2019-02-17T02:42:54.819Z,409.13
2019-02-17T02:43:54.792Z,408.53
2019-02-17T02:44:54.782Z,408.95
2019-02-17T02:45:54.781Z,408.77
2019-02-17T02:46:54.752Z,408.20
2019-02-17T02:47:54.752Z,407.89
2019-02-17T02:48:54.765Z,408.49
2019-02-17T02:49:54.747Z,408.45
2019-02-17T02:50:54.726Z,408.96
2019-02-17T02:51:54.702Z,408.81
2019-02-17T02:52:54.690Z,408.12
2019-02-17T02:53:54.685Z,407.99
2019-02-17T02:54:54.680Z,408.17
2019-02-17T02:55:54.681Z,408.46
2019-02-17T02:56:54.657Z,407.52
2019-02-17T02:57:54.635Z,408.20
2019-02-17T02:58:54.624Z,408.80
2019-02-17T02:59:54.626Z,408.92
2019-02-17T03:00:54.606Z,409.79
2019-02-17T03:01:54.589Z,409.29
2019-02-17T03:02:54.575Z,408.97
2019-02-17T03:03:54.594Z,409.19
2019-02-17T03:04:54.557Z,408.76
2019-02-17T03:05:54.561Z,409.04
2019-02-17T03:06:54.545Z,409.59
2019-02-17T03:07:54.517Z,408.88
2019-02-17T03:08:54.518Z,408.82
2019-02-17T03:09:54.505Z,409.00
2019-02-17T03:10:54.505Z,407.88
2019-02-17T03:11:54.476Z,407.39
2019-02-17T03:12:54.462Z,407.39
2019-02-17T03:13:54.460Z,407.14
2019-02-17T03:14:54.459Z,407.51
2019-02-17T03:15:54.454Z,407.86
2019-02-17T03:16:54.439Z,408.83
2019-02-17T03:17:54.422Z,407.74
2019-02-17T03:18:54.408Z,407.52
2019-02-17T03:19:54.400Z,408.17
2019-02-17T03:20:54.396Z,408.72
2019-02-17T03:21:54.386Z,408.48
2019-02-17T03:22:54.352Z,408.30
2019-02-17T03:23:54.360Z,407.79
2019-02-17T03:24:54.334Z,407.81
2019-02-17T03:25:54.343Z,407.47
2019-02-17T03:26:54.316Z,407.85
2019-02-17T03:27:54.313Z,407.55
2019-02-17T03:28:54.298Z,407.88
2019-02-17T03:30:04.364Z,408.54
2019-02-17T03:30:55.288Z,408.10
2019-02-17T03:31:54.252Z,408.58
2019-02-17T03:32:54.263Z,407.60
2019-02-17T03:33:54.250Z,408.03
2019-02-17T03:34:54.226Z,407.60
2019-02-17T03:35:54.211Z,407.94
2019-02-17T03:36:54.228Z,407.51
2019-02-17T03:37:54.190Z,407.88
2019-02-17T03:38:54.184Z,408.68
2019-02-17T03:39:54.175Z,408.05
2019-02-17T03:40:54.153Z,407.72
2019-02-17T03:41:54.211Z,407.30
2019-02-17T03:42:54.131Z,407.27
2019-02-17T03:43:54.132Z,406.54
2019-02-17T03:44:54.117Z,407.30
2019-02-17T03:45:54.107Z,407.31
2019-02-17T03:46:54.108Z,406.78
2019-02-17T03:47:54.089Z,407.64
2019-02-17T03:48:54.069Z,408.21
2019-02-17T03:49:54.054Z,408.56
2019-02-17T03:50:54.048Z,408.16
2019-02-17T03:51:54.045Z,407.58
2019-02-17T03:52:54.025Z,408.41
2019-02-17T03:53:54.013Z,408.41
2019-02-17T03:54:54.007Z,407.81
2019-02-17T03:55:53.991Z,407.80
2019-02-17T03:56:53.996Z,407.84
2019-02-17T03:57:53.970Z,408.39
2019-02-17T03:58:53.971Z,408.91
2019-02-17T03:59:53.948Z,408.67
2019-02-17T04:00:53.933Z,408.28
2019-02-17T04:01:53.965Z,407.97
2019-02-17T04:02:53.929Z,407.48
2019-02-17T04:03:53.897Z,407.99
2019-02-17T04:04:53.882Z,408.68
2019-02-17T04:05:53.884Z,408.20
2019-02-17T04:06:53.877Z,407.74
2019-02-17T04:07:53.857Z,409.06
2019-02-17T04:08:53.857Z,408.25
2019-02-17T04:09:53.831Z,407.97
2019-02-17T04:10:53.824Z,408.23
2019-02-17T04:11:53.841Z,408.08
2019-02-17T04:12:53.819Z,407.53
2019-02-17T04:13:53.792Z,407.21
2019-02-17T04:14:53.774Z,407.47
2019-02-17T04:15:53.770Z,407.31
2019-02-17T04:16:53.770Z,407.60
2019-02-17T04:17:53.771Z,407.92
2019-02-17T04:18:53.730Z,408.17
2019-02-17T04:19:53.725Z,408.32
2019-02-17T04:20:53.706Z,408.00
2019-02-17T04:21:53.696Z,408.34
2019-02-17T04:22:53.704Z,408.39
2019-02-17T04:23:53.678Z,408.44
2019-02-17T04:24:53.698Z,408.25
2019-02-17T04:25:53.656Z,407.95
2019-02-17T04:26:53.648Z,407.80
2019-02-17T04:27:53.649Z,407.46
2019-02-17T04:28:53.621Z,407.90
2019-02-17T04:29:53.612Z,407.96
2019-02-17T04:30:53.622Z,407.49
2019-02-17T04:31:53.591Z,407.94
2019-02-17T04:32:53.602Z,408.01
2019-02-17T04:33:53.582Z,407.68
2019-02-17T04:34:53.560Z,408.23
2019-02-17T04:35:53.561Z,408.01
2019-02-17T04:36:53.544Z,408.11
2019-02-17T04:37:53.546Z,407.54
2019-02-17T04:38:53.518Z,408.00
2019-02-17T04:39:53.503Z,407.66
2019-02-17T04:40:53.491Z,408.45
2019-02-17T04:41:53.485Z,407.81
2019-02-17T04:42:53.526Z,407.29
2019-02-17T04:43:53.461Z,407.64
2019-02-17T04:44:53.442Z,407.44
2019-02-17T04:45:53.446Z,407.53
2019-02-17T04:46:53.424Z,408.15
2019-02-17T04:47:53.445Z,407.97
2019-02-17T04:48:53.405Z,408.32
2019-02-17T04:49:53.396Z,408.13
2019-02-17T04:50:53.387Z,408.54
2019-02-17T04:51:53.377Z,407.92
2019-02-17T04:52:53.386Z,407.75
2019-02-17T04:53:53.342Z,407.29
2019-02-17T04:54:53.337Z,407.57
2019-02-17T04:55:53.344Z,407.68
2019-02-17T04:56:53.324Z,408.18
2019-02-17T04:57:53.304Z,408.30
2019-02-17T04:58:53.303Z,407.60
2019-02-17T04:59:53.290Z,407.51
2019-02-17T05:00:53.270Z,407.97
2019-02-17T05:01:53.282Z,407.86
2019-02-17T05:02:53.250Z,407.97
2019-02-17T05:03:53.267Z,407.80
2019-02-17T05:04:53.228Z,408.12
2019-02-17T05:05:53.233Z,407.82
2019-02-17T05:06:53.194Z,407.91
2019-02-17T05:07:53.202Z,407.49
2019-02-17T05:08:53.208Z,407.92
2019-02-17T05:09:53.166Z,407.93
2019-02-17T05:10:53.166Z,407.26
2019-02-17T05:11:53.146Z,407.88
2019-02-17T05:12:53.226Z,407.80
2019-02-17T05:13:53.146Z,407.81
2019-02-17T05:14:53.123Z,408.44
2019-02-17T05:15:53.097Z,407.97
2019-02-17T05:16:53.094Z,407.27
2019-02-17T05:17:53.096Z,406.82
2019-02-17T05:18:53.103Z,407.55
2019-02-17T05:19:53.056Z,407.93
2019-02-17T05:20:53.052Z,407.25
2019-02-17T05:21:53.036Z,407.26
2019-02-17T05:22:53.031Z,408.01
2019-02-17T05:23:53.070Z,407.85
2019-02-17T05:24:53.055Z,408.34
2019-02-17T05:25:53.002Z,408.36
2019-02-17T05:26:52.990Z,407.85
2019-02-17T05:27:52.969Z,408.22
2019-02-17T05:28:52.977Z,407.85
2019-02-17T05:29:52.955Z,408.57
2019-02-17T05:30:53.521Z,408.51
2019-02-17T05:31:52.928Z,408.23
2019-02-17T05:32:52.943Z,407.93
2019-02-17T05:33:52.937Z,407.93
2019-02-17T05:34:52.896Z,408.17
2019-02-17T05:35:52.886Z,408.13
2019-02-17T05:36:52.877Z,408.10
2019-02-17T05:37:52.876Z,408.05
2019-02-17T05:38:52.863Z,408.30
2019-02-17T05:39:52.859Z,408.01
2019-02-17T05:40:52.828Z,408.10
2019-02-17T05:41:52.829Z,408.25
2019-02-17T05:42:52.809Z,408.38
2019-02-17T05:43:52.812Z,408.50
2019-02-17T05:44:52.816Z,408.29
2019-02-17T05:45:52.774Z,408.56
2019-02-17T05:46:52.771Z,407.11
2019-02-17T05:47:52.769Z,408.37
2019-02-17T05:48:52.742Z,408.24
2019-02-17T05:49:52.755Z,408.56
2019-02-17T05:50:52.727Z,407.50
2019-02-17T05:51:52.716Z,407.68
2019-02-17T05:52:52.709Z,406.96
2019-02-17T05:53:52.682Z,406.77
2019-02-17T05:54:52.700Z,407.72
2019-02-17T05:55:52.693Z,407.08
2019-02-17T05:56:52.700Z,408.08
2019-02-17T05:57:52.647Z,407.84
2019-02-17T05:58:52.633Z,407.18
2019-02-17T05:59:52.641Z,407.56
2019-02-17T06:01:03.039Z,408.09
2019-02-17T06:01:53.601Z,407.80
2019-02-17T06:02:52.658Z,408.02
2019-02-17T06:03:52.592Z,410.70
2019-02-17T06:04:52.578Z,408.80
2019-02-17T06:05:52.568Z,408.49
2019-02-17T06:06:52.544Z,407.84
2019-02-17T06:07:52.534Z,407.14
2019-02-17T06:08:52.540Z,406.51
2019-02-17T06:09:52.560Z,407.38
2019-02-17T06:10:52.492Z,406.91
2019-02-17T06:11:52.487Z,407.69
2019-02-17T06:12:52.490Z,407.85
2019-02-17T06:13:52.508Z,408.04
2019-02-17T06:14:52.474Z,408.15
2019-02-17T06:15:52.466Z,407.63
2019-02-17T06:16:52.443Z,407.74
2019-02-17T06:17:52.430Z,407.82
2019-02-17T06:18:52.416Z,407.30
2019-02-17T06:19:52.403Z,407.83
2019-02-17T06:20:52.404Z,408.01
2019-02-17T06:21:52.376Z,407.46
2019-02-17T06:22:52.370Z,407.49
2019-02-17T06:23:52.359Z,407.61
2019-02-17T06:24:52.348Z,407.86
2019-02-17T06:25:52.352Z,407.68
2019-02-17T06:26:52.330Z,407.73
2019-02-17T06:27:52.326Z,407.58
2019-02-17T06:28:52.315Z,407.28
2019-02-17T06:29:52.299Z,407.17
2019-02-17T06:30:52.296Z,407.11
2019-02-17T06:31:52.272Z,407.57
2019-02-17T06:32:52.271Z,407.57
2019-02-17T06:33:52.254Z,407.12
2019-02-17T06:34:52.255Z,407.84
2019-02-17T06:35:52.244Z,408.02
2019-02-17T06:36:52.229Z,407.90
2019-02-17T06:37:52.210Z,408.18
2019-02-17T06:38:52.203Z,408.20
2019-02-17T06:39:52.186Z,408.49
2019-02-17T06:40:52.201Z,407.85
2019-02-17T06:41:52.178Z,407.63
2019-02-17T06:42:52.172Z,407.48
2019-02-17T06:43:52.143Z,407.18
2019-02-17T06:44:52.137Z,407.19
2019-02-17T06:45:52.152Z,407.82
2019-02-17T06:46:52.122Z,407.02
2019-02-17T06:47:52.102Z,407.54
2019-02-17T06:48:52.086Z,407.05
2019-02-17T06:49:52.078Z,408.01
2019-02-17T06:50:52.080Z,408.36
2019-02-17T06:51:52.071Z,408.01
2019-02-17T06:52:52.044Z,407.61
2019-02-17T06:53:52.040Z,407.84
2019-02-17T06:54:52.034Z,407.97
2019-02-17T06:55:52.033Z,407.57
2019-02-17T06:56:52.001Z,407.77
2019-02-17T06:57:52.000Z,407.70
2019-02-17T06:58:51.988Z,408.26
2019-02-17T06:59:51.977Z,407.68
2019-02-17T07:00:51.961Z,408.05
2019-02-17T07:01:51.976Z,408.32
2019-02-17T07:02:51.946Z,407.92
2019-02-17T07:03:51.938Z,407.52
2019-02-17T07:04:51.928Z,407.32
2019-02-17T07:05:51.903Z,407.71
2019-02-17T07:06:51.913Z,408.00
2019-02-17T07:07:51.908Z,407.69
2019-02-17T07:08:51.882Z,408.01
2019-02-17T07:09:51.882Z,408.26
2019-02-17T07:10:51.870Z,407.55
2019-02-17T07:11:51.885Z,408.38
2019-02-17T07:12:51.834Z,407.95
2019-02-17T07:13:51.821Z,407.68
2019-02-17T07:14:51.812Z,407.45
2019-02-17T07:15:51.801Z,407.67
2019-02-17T07:16:51.811Z,407.44
2019-02-17T07:17:51.868Z,408.17
2019-02-17T07:18:51.777Z,407.71
2019-02-17T07:19:51.780Z,407.61
2019-02-17T07:20:51.764Z,407.41
2019-02-17T07:21:51.748Z,407.65
2019-02-17T07:22:51.726Z,407.36
2019-02-17T07:23:51.716Z,408.05
2019-02-17T07:24:51.723Z,407.69
2019-02-17T07:25:51.696Z,407.46
2019-02-17T07:26:51.721Z,408.07
2019-02-17T07:27:51.691Z,407.88
2019-02-17T07:28:51.709Z,408.49
2019-02-17T07:29:51.650Z,408.43
2019-02-17T07:30:51.631Z,408.32
2019-02-17T07:31:51.633Z,408.16
2019-02-17T07:32:51.625Z,408.33
2019-02-17T07:33:51.604Z,408.29
2019-02-17T07:34:51.584Z,408.86
2019-02-17T07:35:51.587Z,408.93
2019-02-17T07:36:51.583Z,408.59
2019-02-17T07:37:51.567Z,407.60
2019-02-17T07:38:51.543Z,408.11
2019-02-17T07:39:51.534Z,408.39
2019-02-17T07:40:51.520Z,411.94
2019-02-17T07:41:51.512Z,410.80
2019-02-17T07:42:51.523Z,410.38
2019-02-17T07:43:51.495Z,409.49
2019-02-17T07:44:51.484Z,410.94
2019-02-17T07:45:51.469Z,409.49
2019-02-17T07:46:51.459Z,409.19
2019-02-17T07:47:51.459Z,408.83
2019-02-17T07:48:51.443Z,409.37
2019-02-17T07:49:51.425Z,408.83
2019-02-17T07:50:51.441Z,409.71
2019-02-17T07:51:51.415Z,408.70
2019-02-17T07:52:51.410Z,409.40
2019-02-17T07:53:51.377Z,409.34
2019-02-17T07:54:51.385Z,409.00
2019-02-17T07:55:51.365Z,409.16
2019-02-17T07:56:51.341Z,409.36
2019-02-17T07:57:51.357Z,408.95
2019-02-17T07:58:51.324Z,408.85
2019-02-17T07:59:51.319Z,409.12
2019-02-17T08:00:51.300Z,409.35
2019-02-17T08:01:51.320Z,409.32
2019-02-17T08:02:51.322Z,409.34
2019-02-17T08:03:51.271Z,409.38
2019-02-17T08:04:51.264Z,409.10
2019-02-17T08:05:51.263Z,409.28
2019-02-17T08:06:51.233Z,410.03
2019-02-17T08:07:51.267Z,409.57
2019-02-17T08:08:51.215Z,409.26
2019-02-17T08:09:51.204Z,409.70
2019-02-17T08:10:51.190Z,410.01
2019-02-17T08:11:51.186Z,409.22
2019-02-17T08:12:51.198Z,409.58
2019-02-17T08:13:51.194Z,410.06
2019-02-17T08:14:51.149Z,410.01
2019-02-17T08:15:51.154Z,410.46
2019-02-17T08:16:51.124Z,410.95
2019-02-17T08:17:51.115Z,409.67
2019-02-17T08:18:51.146Z,410.00
2019-02-17T08:19:51.086Z,409.48
2019-02-17T08:20:51.076Z,410.19
2019-02-17T08:21:51.069Z,409.22
2019-02-17T08:22:51.075Z,409.80
2019-02-17T08:23:51.070Z,408.87
2019-02-17T08:24:51.043Z,408.68
2019-02-17T08:25:51.032Z,408.96
2019-02-17T08:26:51.016Z,410.84
2019-02-17T08:27:51.011Z,409.92
2019-02-17T08:28:51.012Z,409.28
2019-02-17T08:29:50.984Z,409.31
2019-02-17T08:30:50.977Z,410.00
2019-02-17T08:31:55.862Z,409.16
2019-02-17T08:32:51.958Z,410.14
2019-02-17T08:33:50.954Z,409.99
2019-02-17T08:34:53.125Z,410.12
2019-02-17T08:35:50.908Z,409.59
2019-02-17T08:36:50.923Z,409.34
2019-02-17T08:37:50.905Z,409.61
2019-02-17T08:38:50.888Z,408.43
2019-02-17T08:39:50.896Z,408.41
2019-02-17T08:40:50.874Z,408.68
2019-02-17T08:41:50.854Z,408.60
2019-02-17T08:42:50.838Z,409.26
2019-02-17T08:43:50.832Z,408.56
2019-02-17T08:44:50.846Z,409.59
2019-02-17T08:45:50.802Z,408.36
2019-02-17T08:46:50.772Z,409.23
2019-02-17T08:47:50.786Z,409.06
2019-02-17T08:48:50.761Z,409.41
2019-02-17T08:49:50.780Z,408.30
2019-02-17T08:50:50.746Z,409.45
2019-02-17T08:51:50.739Z,408.35
2019-02-17T08:52:50.727Z,409.97
2019-02-17T08:53:50.719Z,408.68
2019-02-17T08:54:50.736Z,409.32
2019-02-17T08:55:50.691Z,408.94
2019-02-17T08:56:50.681Z,409.09
2019-02-17T08:57:50.684Z,409.98
2019-02-17T08:58:50.660Z,409.74
2019-02-17T08:59:50.655Z,410.02
2019-02-17T09:00:50.659Z,409.95
2019-02-17T09:01:50.625Z,408.96
2019-02-17T09:02:50.621Z,409.22
2019-02-17T09:03:50.601Z,409.20
2019-02-17T09:04:50.591Z,409.45
2019-02-17T09:05:50.599Z,408.69
2019-02-17T09:06:50.568Z,409.75
2019-02-17T09:07:50.564Z,409.27
2019-02-17T09:08:50.547Z,409.69
2019-02-17T09:09:50.535Z,409.06
2019-02-17T09:10:50.543Z,409.19
2019-02-17T09:11:50.531Z,408.44
2019-02-17T09:12:50.510Z,408.81
2019-02-17T09:13:50.490Z,409.57
2019-02-17T09:14:50.479Z,408.65
2019-02-17T09:15:50.489Z,409.42
2019-02-17T09:16:50.459Z,408.59
2019-02-17T09:17:50.442Z,408.75
2019-02-17T09:18:50.442Z,408.81
2019-02-17T09:19:50.431Z,409.21
2019-02-17T09:20:50.416Z,408.99
2019-02-17T09:21:50.431Z,409.22
2019-02-17T09:22:50.391Z,409.81
2019-02-17T09:23:50.382Z,409.72
2019-02-17T09:24:50.385Z,409.02
2019-02-17T09:25:50.364Z,409.56
2019-02-17T09:26:50.384Z,409.93
2019-02-17T09:27:50.334Z,409.18
2019-02-17T09:28:50.329Z,408.78
2019-02-17T09:29:50.320Z,408.21
2019-02-17T09:30:50.297Z,409.70
2019-02-17T09:31:50.317Z,409.23
2019-02-17T09:32:50.281Z,409.33
2019-02-17T09:33:50.274Z,409.23
2019-02-17T09:34:50.259Z,409.93
2019-02-17T09:35:50.264Z,409.47
2019-02-17T09:36:50.246Z,409.37
2019-02-17T09:37:50.224Z,409.82
2019-02-17T09:38:50.223Z,409.86
2019-02-17T09:39:50.210Z,408.99
2019-02-17T09:40:50.198Z,409.12
2019-02-17T09:41:50.228Z,409.45
2019-02-17T09:42:50.176Z,409.89
2019-02-17T09:43:50.161Z,409.56
2019-02-17T09:44:50.153Z,410.25
2019-02-17T09:45:50.132Z,409.53
2019-02-17T09:46:50.173Z,409.35
2019-02-17T09:47:50.114Z,408.85
2019-02-17T09:48:50.115Z,409.76
2019-02-17T09:49:50.101Z,408.85
2019-02-17T09:50:50.098Z,409.38
2019-02-17T09:51:50.088Z,409.32
2019-02-17T09:52:50.089Z,409.07
2019-02-17T09:53:50.051Z,408.70
2019-02-17T09:54:50.039Z,409.29
2019-02-17T09:55:50.025Z,409.90
2019-02-17T09:56:50.051Z,409.89
2019-02-17T09:57:50.042Z,409.61
2019-02-17T09:58:49.986Z,409.78
2019-02-17T09:59:49.985Z,410.10
2019-02-17T10:00:49.976Z,409.61
2019-02-17T10:01:49.973Z,409.10
2019-02-17T10:02:49.969Z,409.60
2019-02-17T10:03:49.943Z,408.71
2019-02-17T10:04:50.634Z,409.61
2019-02-17T10:05:49.913Z,409.61
2019-02-17T10:06:49.914Z,408.78
2019-02-17T10:07:51.325Z,409.67
2019-02-17T10:08:49.876Z,409.92
2019-02-17T10:09:49.897Z,409.51
2019-02-17T10:10:49.863Z,409.80
2019-02-17T10:11:49.863Z,409.44
2019-02-17T10:12:49.929Z,409.45
2019-02-17T10:13:49.835Z,409.36
2019-02-17T10:14:49.817Z,408.69
2019-02-17T10:15:49.942Z,409.12
2019-02-17T10:16:49.801Z,409.48
2019-02-17T10:17:49.787Z,409.67
2019-02-17T10:18:49.788Z,409.16
2019-02-17T10:19:49.769Z,410.09
2019-02-17T10:20:49.741Z,409.38
2019-02-17T10:21:49.738Z,409.50
2019-02-17T10:22:49.725Z,409.93
2019-02-17T10:23:49.749Z,409.06
2019-02-17T10:24:49.717Z,408.71
2019-02-17T10:25:49.739Z,409.39
2019-02-17T10:26:49.676Z,409.35
2019-02-17T10:27:49.674Z,409.40
2019-02-17T10:28:49.670Z,410.23
2019-02-17T10:29:49.655Z,410.03
2019-02-17T10:30:49.642Z,409.30
2019-02-17T10:31:49.635Z,409.79
2019-02-17T10:32:49.620Z,409.46
2019-02-17T10:33:49.629Z,409.72
2019-02-17T10:34:49.612Z,409.83
2019-02-17T10:35:49.593Z,409.46
2019-02-17T10:36:49.610Z,411.04
2019-02-17T10:37:49.709Z,410.52
2019-02-17T10:38:49.591Z,410.26
2019-02-17T10:39:49.532Z,410.06
2019-02-17T10:40:49.531Z,410.53
2019-02-17T10:41:49.519Z,411.13
2019-02-17T10:42:49.519Z,410.18
2019-02-17T10:43:49.494Z,409.69
2019-02-17T10:44:49.497Z,409.68
2019-02-17T10:45:49.463Z,410.52
2019-02-17T10:46:49.474Z,409.89
2019-02-17T10:47:49.568Z,410.09
2019-02-17T10:48:49.468Z,409.72
2019-02-17T10:49:49.462Z,410.20
2019-02-17T10:50:49.499Z,410.08
2019-02-17T10:51:49.423Z,410.62
2019-02-17T10:52:49.402Z,410.43
2019-02-17T10:53:49.389Z,410.60
2019-02-17T10:54:49.404Z,410.43
2019-02-17T10:55:49.357Z,410.77
2019-02-17T10:56:49.345Z,410.41
2019-02-17T10:57:49.341Z,409.30
2019-02-17T10:58:49.340Z,410.41
2019-02-17T10:59:49.346Z,409.52
2019-02-17T11:00:49.299Z,410.53
2019-02-17T11:01:49.297Z,409.63
2019-02-17T11:02:49.285Z,410.33
2019-02-17T11:03:49.282Z,410.72
2019-02-17T11:04:49.300Z,410.77
2019-02-17T11:05:49.244Z,410.23
2019-02-17T11:06:49.232Z,409.70
2019-02-17T11:07:49.240Z,409.07
2019-02-17T11:08:49.218Z,409.37
2019-02-17T11:09:49.206Z,409.55
2019-02-17T11:10:49.212Z,409.93
2019-02-17T11:11:49.186Z,409.98
2019-02-17T11:12:49.177Z,410.06
2019-02-17T11:13:49.211Z,409.37
2019-02-17T11:14:49.162Z,409.53
2019-02-17T11:15:49.176Z,409.49
2019-02-17T11:16:49.151Z,409.41
2019-02-17T11:17:49.127Z,410.01
2019-02-17T11:18:49.100Z,410.09
2019-02-17T11:19:49.106Z,410.64
2019-02-17T11:20:49.108Z,409.97
2019-02-17T11:21:49.076Z,409.28
2019-02-17T11:22:49.063Z,410.52
2019-02-17T11:23:49.062Z,409.41
2019-02-17T11:24:49.054Z,410.76
2019-02-17T11:25:49.046Z,409.18
2019-02-17T11:26:49.034Z,410.04
2019-02-17T11:27:49.000Z,409.45
2019-02-17T11:28:49.004Z,410.28
2019-02-17T11:29:49.002Z,409.45
2019-02-17T11:30:49.022Z,410.07
2019-02-17T11:31:48.969Z,408.50
2019-02-17T11:32:57.540Z,409.49
2019-02-17T11:33:49.946Z,409.52
2019-02-17T11:34:48.938Z,409.31
2019-02-17T11:35:48.942Z,408.57
2019-02-17T11:36:48.929Z,409.69
2019-02-17T11:37:48.898Z,410.42
2019-02-17T11:38:48.886Z,408.67
2019-02-17T11:39:49.112Z,409.45
2019-02-17T11:40:48.887Z,410.98
2019-02-17T11:41:48.855Z,409.64
2019-02-17T11:42:48.844Z,409.01
2019-02-17T11:43:48.848Z,409.13
2019-02-17T11:44:48.830Z,410.42
2019-02-17T11:45:48.812Z,410.80
2019-02-17T11:46:48.821Z,411.14
2019-02-17T11:47:48.799Z,409.03
2019-02-17T11:48:48.773Z,409.38
2019-02-17T11:49:48.775Z,409.79
2019-02-17T11:50:48.750Z,409.70
2019-02-17T11:51:48.760Z,407.17
2019-02-17T11:52:48.743Z,409.62
2019-02-17T11:53:48.722Z,409.07
2019-02-17T11:54:48.718Z,409.90
2019-02-17T11:55:48.707Z,409.82
2019-02-17T11:56:48.717Z,409.18
2019-02-17T11:57:48.668Z,409.75
2019-02-17T11:58:48.669Z,409.20
2019-02-17T11:59:48.673Z,409.78
2019-02-17T12:00:48.641Z,410.43
2019-02-17T12:01:48.709Z,410.04
2019-02-17T12:02:48.656Z,410.41
2019-02-17T12:03:48.603Z,408.79
2019-02-17T12:04:48.598Z,410.01
2019-02-17T12:05:48.589Z,409.81
2019-02-17T12:06:48.575Z,410.10
2019-02-17T12:07:48.593Z,409.75
2019-02-17T12:08:48.555Z,409.50
2019-02-17T12:09:48.531Z,410.52
2019-02-17T12:10:48.526Z,409.87
2019-02-17T12:11:48.523Z,410.37
2019-02-17T12:12:48.543Z,409.88
2019-02-17T12:13:48.517Z,409.57
2019-02-17T12:14:48.489Z,408.90
2019-02-17T12:15:48.478Z,409.27
2019-02-17T12:16:48.453Z,408.60
2019-02-17T12:17:48.476Z,409.27
2019-02-17T12:18:48.454Z,409.76
2019-02-17T12:19:48.422Z,409.23
2019-02-17T12:20:48.433Z,409.43
2019-02-17T12:21:48.409Z,409.87
2019-02-17T12:22:48.424Z,410.32
2019-02-17T12:23:48.394Z,411.80
2019-02-17T12:24:48.406Z,409.39
2019-02-17T12:25:48.369Z,411.12
2019-02-17T12:26:49.769Z,411.37
2019-02-17T12:27:48.354Z,410.64
2019-02-17T12:28:48.332Z,410.20